sensor_id;sensor_type;location;lat;lon;timestamp;temperature;humidity
5621;DHT22;2832;50.864;12.186;2023-07-13T00:01:55;28.00;75.70
5621;DHT22;2832;50.864;12.186;2023-07-13T00:04:25;28.00;75.60
5621;DHT22;2832;50.864;12.186;2023-07-13T00:07:04;28.00;75.80
5621;DHT22;2832;50.864;12.186;2023-07-13T00:09:36;27.90;75.80
5621;DHT22;2832;50.864;12.186;2023-07-13T00:12:23;27.90;75.80
5621;DHT22;2832;50.864;12.186;2023-07-13T00:14:51;27.90;75.80
5621;DHT22;2832;50.864;12.186;2023-07-13T00:17:21;27.90;76.00
5621;DHT22;2832;50.864;12.186;2023-07-13T00:19:49;27.90;76.10
5621;DHT22;2832;50.864;12.186;2023-07-13T00:22:19;27.90;76.30
5621;DHT22;2832;50.864;12.186;2023-07-13T00:24:48;27.90;76.60
5621;DHT22;2832;50.864;12.186;2023-07-13T00:27:19;27.80;76.50
5621;DHT22;2832;50.864;12.186;2023-07-13T00:29:47;27.80;76.50
5621;DHT22;2832;50.864;12.186;2023-07-13T00:32:15;27.80;76.60
5621;DHT22;2832;50.864;12.186;2023-07-13T00:34:47;27.80;76.50
5621;DHT22;2832;50.864;12.186;2023-07-13T00:37:15;27.70;76.30
5621;DHT22;2832;50.864;12.186;2023-07-13T00:39:48;27.80;76.40
5621;DHT22;2832;50.864;12.186;2023-07-13T00:42:16;27.80;76.30
5621;DHT22;2832;50.864;12.186;2023-07-13T00:45:00;27.70;76.40
5621;DHT22;2832;50.864;12.186;2023-07-13T00:47:30;27.70;76.60
5621;DHT22;2832;50.864;12.186;2023-07-13T00:49:58;27.80;76.80
5621;DHT22;2832;50.864;12.186;2023-07-13T00:52:28;27.80;77.00
5621;DHT22;2832;50.864;12.186;2023-07-13T00:54:59;27.70;77.10
5621;DHT22;2832;50.864;12.186;2023-07-13T00:57:27;27.70;77.20
5621;DHT22;2832;50.864;12.186;2023-07-13T00:59:59;27.70;77.30
5621;DHT22;2832;50.864;12.186;2023-07-13T01:02:30;27.70;77.60
5621;DHT22;2832;50.864;12.186;2023-07-13T01:04:59;27.70;77.50
5621;DHT22;2832;50.864;12.186;2023-07-13T01:07:30;27.60;77.90
5621;DHT22;2832;50.864;12.186;2023-07-13T01:10:06;27.60;78.30
5621;DHT22;2832;50.864;12.186;2023-07-13T01:12:38;27.50;78.50
5621;DHT22;2832;50.864;12.186;2023-07-13T01:15:36;27.50;78.70
5621;DHT22;2832;50.864;12.186;2023-07-13T01:18:12;27.50;78.60
5621;DHT22;2832;50.864;12.186;2023-07-13T01:20:53;27.50;78.70
5621;DHT22;2832;50.864;12.186;2023-07-13T01:23:25;27.50;79.10
5621;DHT22;2832;50.864;12.186;2023-07-13T01:26:12;27.50;78.40
5621;DHT22;2832;50.864;12.186;2023-07-13T01:29:00;27.50;78.40
5621;DHT22;2832;50.864;12.186;2023-07-13T01:31:30;27.40;78.60
5621;DHT22;2832;50.864;12.186;2023-07-13T01:33:59;27.40;78.60
5621;DHT22;2832;50.864;12.186;2023-07-13T01:36:31;27.40;78.50
5621;DHT22;2832;50.864;12.186;2023-07-13T01:39:00;27.40;78.30
5621;DHT22;2832;50.864;12.186;2023-07-13T01:41:29;27.40;78.30
5621;DHT22;2832;50.864;12.186;2023-07-13T01:44:14;27.40;78.40
5621;DHT22;2832;50.864;12.186;2023-07-13T01:46:55;27.30;78.60
5621;DHT22;2832;50.864;12.186;2023-07-13T01:49:43;27.30;78.90
5621;DHT22;2832;50.864;12.186;2023-07-13T01:52:33;27.30;79.00
5621;DHT22;2832;50.864;12.186;2023-07-13T01:55:21;27.30;79.20
5621;DHT22;2832;50.864;12.186;2023-07-13T01:58:09;27.30;79.60
5621;DHT22;2832;50.864;12.186;2023-07-13T02:00:37;27.30;80.20
5621;DHT22;2832;50.864;12.186;2023-07-13T02:03:06;27.30;80.40
5621;DHT22;2832;50.864;12.186;2023-07-13T02:05:35;27.30;80.40
5621;DHT22;2832;50.864;12.186;2023-07-13T02:08:09;27.30;80.40
5621;DHT22;2832;50.864;12.186;2023-07-13T02:10:40;27.30;80.30
5621;DHT22;2832;50.864;12.186;2023-07-13T02:13:08;27.20;80.40
5621;DHT22;2832;50.864;12.186;2023-07-13T02:15:38;27.20;80.60
5621;DHT22;2832;50.864;12.186;2023-07-13T02:18:07;27.10;80.60
5621;DHT22;2832;50.864;12.186;2023-07-13T02:20:35;27.10;80.60
5621;DHT22;2832;50.864;12.186;2023-07-13T02:23:02;27.10;80.70
5621;DHT22;2832;50.864;12.186;2023-07-13T02:25:32;27.10;80.60
5621;DHT22;2832;50.864;12.186;2023-07-13T02:27:59;27.10;80.60
5621;DHT22;2832;50.864;12.186;2023-07-13T02:30:30;27.10;80.70
5621;DHT22;2832;50.864;12.186;2023-07-13T02:32:58;27.10;80.90
5621;DHT22;2832;50.864;12.186;2023-07-13T02:35:26;27.10;81.00
5621;DHT22;2832;50.864;12.186;2023-07-13T02:37:54;27.10;81.10
5621;DHT22;2832;50.864;12.186;2023-07-13T02:40:22;27.10;81.00
5621;DHT22;2832;50.864;12.186;2023-07-13T02:42:51;27.00;81.80
5621;DHT22;2832;50.864;12.186;2023-07-13T02:45:18;27.10;81.30
5621;DHT22;2832;50.864;12.186;2023-07-13T02:47:46;27.00;81.50
5621;DHT22;2832;50.864;12.186;2023-07-13T02:50:14;27.00;81.70
5621;DHT22;2832;50.864;12.186;2023-07-13T02:52:41;27.00;81.70
5621;DHT22;2832;50.864;12.186;2023-07-13T02:55:09;27.00;81.80
5621;DHT22;2832;50.864;12.186;2023-07-13T02:57:37;27.00;81.90
5621;DHT22;2832;50.864;12.186;2023-07-13T03:00:07;27.00;82.70
5621;DHT22;2832;50.864;12.186;2023-07-13T03:02:35;27.00;82.20
5621;DHT22;2832;50.864;12.186;2023-07-13T03:05:04;26.90;82.20
5621;DHT22;2832;50.864;12.186;2023-07-13T03:07:32;26.90;82.50
5621;DHT22;2832;50.864;12.186;2023-07-13T03:10:00;26.90;82.70
5621;DHT22;2832;50.864;12.186;2023-07-13T03:12:27;26.80;82.70
5621;DHT22;2832;50.864;12.186;2023-07-13T03:14:55;26.80;82.80
5621;DHT22;2832;50.864;12.186;2023-07-13T03:17:24;26.80;82.80
5621;DHT22;2832;50.864;12.186;2023-07-13T03:19:53;26.80;82.70
5621;DHT22;2832;50.864;12.186;2023-07-13T03:22:21;26.80;82.70
5621;DHT22;2832;50.864;12.186;2023-07-13T03:24:49;26.70;82.80
5621;DHT22;2832;50.864;12.186;2023-07-13T03:27:18;26.60;82.80
5621;DHT22;2832;50.864;12.186;2023-07-13T03:29:46;26.60;83.10
5621;DHT22;2832;50.864;12.186;2023-07-13T03:32:13;26.60;83.20
5621;DHT22;2832;50.864;12.186;2023-07-13T03:34:42;26.60;83.20
5621;DHT22;2832;50.864;12.186;2023-07-13T03:37:10;26.60;83.50
5621;DHT22;2832;50.864;12.186;2023-07-13T03:39:38;26.60;83.60
5621;DHT22;2832;50.864;12.186;2023-07-13T03:42:06;26.50;83.60
5621;DHT22;2832;50.864;12.186;2023-07-13T03:44:34;26.60;83.70
5621;DHT22;2832;50.864;12.186;2023-07-13T03:47:03;26.60;83.70
5621;DHT22;2832;50.864;12.186;2023-07-13T03:49:33;26.60;83.30
5621;DHT22;2832;50.864;12.186;2023-07-13T03:52:05;26.50;83.10
5621;DHT22;2832;50.864;12.186;2023-07-13T03:54:32;26.50;83.40
5621;DHT22;2832;50.864;12.186;2023-07-13T03:57:00;26.50;83.60
5621;DHT22;2832;50.864;12.186;2023-07-13T03:59:28;26.50;83.70
5621;DHT22;2832;50.864;12.186;2023-07-13T04:01:55;26.50;84.00
5621;DHT22;2832;50.864;12.186;2023-07-13T04:04:23;26.50;84.20
5621;DHT22;2832;50.864;12.186;2023-07-13T04:06:51;26.50;84.30
5621;DHT22;2832;50.864;12.186;2023-07-13T04:09:21;26.40;84.30
5621;DHT22;2832;50.864;12.186;2023-07-13T04:11:50;26.40;84.50
5621;DHT22;2832;50.864;12.186;2023-07-13T04:14:18;26.40;84.40
5621;DHT22;2832;50.864;12.186;2023-07-13T04:16:50;26.50;84.40
5621;DHT22;2832;50.864;12.186;2023-07-13T04:19:18;26.50;84.10
5621;DHT22;2832;50.864;12.186;2023-07-13T04:21:45;26.50;83.80
5621;DHT22;2832;50.864;12.186;2023-07-13T04:24:13;26.50;84.20
5621;DHT22;2832;50.864;12.186;2023-07-13T04:26:42;26.50;84.60
5621;DHT22;2832;50.864;12.186;2023-07-13T04:29:11;26.50;84.80
5621;DHT22;2832;50.864;12.186;2023-07-13T04:31:38;26.50;84.80
5621;DHT22;2832;50.864;12.186;2023-07-13T04:34:10;26.50;84.90
5621;DHT22;2832;50.864;12.186;2023-07-13T04:36:41;26.50;84.80
5621;DHT22;2832;50.864;12.186;2023-07-13T04:39:08;26.40;83.60
5621;DHT22;2832;50.864;12.186;2023-07-13T04:41:36;26.40;82.80
5621;DHT22;2832;50.864;12.186;2023-07-13T04:44:07;26.40;82.70
5621;DHT22;2832;50.864;12.186;2023-07-13T04:46:35;26.40;82.40
5621;DHT22;2832;50.864;12.186;2023-07-13T04:49:04;26.30;81.80
5621;DHT22;2832;50.864;12.186;2023-07-13T04:51:36;26.30;81.70
5621;DHT22;2832;50.864;12.186;2023-07-13T04:54:04;26.40;81.60
5621;DHT22;2832;50.864;12.186;2023-07-13T04:56:35;26.40;81.50
5621;DHT22;2832;50.864;12.186;2023-07-13T04:59:03;26.30;81.50
5621;DHT22;2832;50.864;12.186;2023-07-13T05:01:35;26.30;81.70
5621;DHT22;2832;50.864;12.186;2023-07-13T05:04:06;26.30;81.70
5621;DHT22;2832;50.864;12.186;2023-07-13T05:06:35;26.30;81.30
5621;DHT22;2832;50.864;12.186;2023-07-13T05:09:04;26.20;81.10
5621;DHT22;2832;50.864;12.186;2023-07-13T05:11:34;26.30;81.10
5621;DHT22;2832;50.864;12.186;2023-07-13T05:14:04;26.30;80.80
5621;DHT22;2832;50.864;12.186;2023-07-13T05:16:37;26.30;80.70
5621;DHT22;2832;50.864;12.186;2023-07-13T05:19:07;26.30;80.70
5621;DHT22;2832;50.864;12.186;2023-07-13T05:21:38;26.30;80.50
5621;DHT22;2832;50.864;12.186;2023-07-13T05:24:08;26.30;81.20
5621;DHT22;2832;50.864;12.186;2023-07-13T05:26:37;26.20;80.50
5621;DHT22;2832;50.864;12.186;2023-07-13T05:29:08;26.00;80.40
5621;DHT22;2832;50.864;12.186;2023-07-13T05:31:39;25.80;80.50
5621;DHT22;2832;50.864;12.186;2023-07-13T05:34:07;25.70;80.80
5621;DHT22;2832;50.864;12.186;2023-07-13T05:36:34;25.70;81.00
5621;DHT22;2832;50.864;12.186;2023-07-13T05:39:04;25.70;81.10
5621;DHT22;2832;50.864;12.186;2023-07-13T05:41:35;25.60;81.00
5621;DHT22;2832;50.864;12.186;2023-07-13T05:44:03;25.50;81.70
5621;DHT22;2832;50.864;12.186;2023-07-13T05:46:33;25.40;81.30
5621;DHT22;2832;50.864;12.186;2023-07-13T05:49:44;25.40;81.60
5621;DHT22;2832;50.864;12.186;2023-07-13T05:52:16;25.30;81.70
5621;DHT22;2832;50.864;12.186;2023-07-13T05:54:44;25.40;81.90
5621;DHT22;2832;50.864;12.186;2023-07-13T05:57:11;25.30;81.70
5621;DHT22;2832;50.864;12.186;2023-07-13T05:59:42;25.30;81.80
5621;DHT22;2832;50.864;12.186;2023-07-13T06:02:15;25.20;81.80
5621;DHT22;2832;50.864;12.186;2023-07-13T06:04:56;25.20;82.20
5621;DHT22;2832;50.864;12.186;2023-07-13T06:07:38;25.30;81.90
5621;DHT22;2832;50.864;12.186;2023-07-13T06:10:13;25.30;81.80
5621;DHT22;2832;50.864;12.186;2023-07-13T06:12:45;25.30;82.20
5621;DHT22;2832;50.864;12.186;2023-07-13T06:15:17;25.30;82.30
5621;DHT22;2832;50.864;12.186;2023-07-13T06:17:46;25.30;81.90
5621;DHT22;2832;50.864;12.186;2023-07-13T06:20:16;25.40;82.00
5621;DHT22;2832;50.864;12.186;2023-07-13T06:22:44;25.40;81.90
5621;DHT22;2832;50.864;12.186;2023-07-13T06:25:12;25.40;82.00
5621;DHT22;2832;50.864;12.186;2023-07-13T06:27:40;25.50;81.70
5621;DHT22;2832;50.864;12.186;2023-07-13T06:30:09;25.40;81.40
5621;DHT22;2832;50.864;12.186;2023-07-13T06:32:38;25.40;81.30
5621;DHT22;2832;50.864;12.186;2023-07-13T06:35:07;25.50;81.40
5621;DHT22;2832;50.864;12.186;2023-07-13T06:37:40;25.50;81.00
5621;DHT22;2832;50.864;12.186;2023-07-13T06:40:09;25.60;81.20
5621;DHT22;2832;50.864;12.186;2023-07-13T06:42:40;25.50;81.20
5621;DHT22;2832;50.864;12.186;2023-07-13T06:45:13;25.50;81.20
5621;DHT22;2832;50.864;12.186;2023-07-13T06:47:40;25.50;81.20
5621;DHT22;2832;50.864;12.186;2023-07-13T06:50:09;25.50;80.90
5621;DHT22;2832;50.864;12.186;2023-07-13T06:52:37;25.40;80.90
5621;DHT22;2832;50.864;12.186;2023-07-13T06:55:08;25.40;80.80
5621;DHT22;2832;50.864;12.186;2023-07-13T06:57:35;25.30;80.70
5621;DHT22;2832;50.864;12.186;2023-07-13T07:00:04;25.20;80.50
5621;DHT22;2832;50.864;12.186;2023-07-13T07:02:33;25.20;80.30
5621;DHT22;2832;50.864;12.186;2023-07-13T07:05:01;25.30;80.30
5621;DHT22;2832;50.864;12.186;2023-07-13T07:07:29;25.30;79.70
5621;DHT22;2832;50.864;12.186;2023-07-13T07:09:58;25.30;79.70
5621;DHT22;2832;50.864;12.186;2023-07-13T07:12:33;25.30;80.00
5621;DHT22;2832;50.864;12.186;2023-07-13T07:15:06;25.40;79.80
5621;DHT22;2832;50.864;12.186;2023-07-13T07:17:35;25.50;79.80
5621;DHT22;2832;50.864;12.186;2023-07-13T07:20:03;25.60;79.50
5621;DHT22;2832;50.864;12.186;2023-07-13T07:22:32;25.60;79.60
5621;DHT22;2832;50.864;12.186;2023-07-13T07:24:59;25.70;79.60
5621;DHT22;2832;50.864;12.186;2023-07-13T07:27:30;25.70;79.30
5621;DHT22;2832;50.864;12.186;2023-07-13T07:29:59;25.60;79.50
5621;DHT22;2832;50.864;12.186;2023-07-13T07:32:29;25.60;79.60
5621;DHT22;2832;50.864;12.186;2023-07-13T07:35:01;25.50;80.00
5621;DHT22;2832;50.864;12.186;2023-07-13T07:37:31;25.50;80.20
5621;DHT22;2832;50.864;12.186;2023-07-13T07:40:03;25.50;80.20
5621;DHT22;2832;50.864;12.186;2023-07-13T07:42:34;25.60;80.20
5621;DHT22;2832;50.864;12.186;2023-07-13T07:45:02;25.70;79.90
5621;DHT22;2832;50.864;12.186;2023-07-13T07:47:31;25.70;79.80
5621;DHT22;2832;50.864;12.186;2023-07-13T07:49:59;25.80;79.70
5621;DHT22;2832;50.864;12.186;2023-07-13T07:52:27;25.80;79.80
5621;DHT22;2832;50.864;12.186;2023-07-13T07:55:01;25.80;80.40
5621;DHT22;2832;50.864;12.186;2023-07-13T07:57:30;25.80;80.30
5621;DHT22;2832;50.864;12.186;2023-07-13T07:59:59;25.80;81.20
5621;DHT22;2832;50.864;12.186;2023-07-13T08:02:27;25.90;81.10
5621;DHT22;2832;50.864;12.186;2023-07-13T08:04:55;25.90;81.30
5621;DHT22;2832;50.864;12.186;2023-07-13T08:07:24;25.90;80.90
5621;DHT22;2832;50.864;12.186;2023-07-13T08:09:54;26.00;80.60
5621;DHT22;2832;50.864;12.186;2023-07-13T08:12:23;26.00;81.10
5621;DHT22;2832;50.864;12.186;2023-07-13T08:14:51;26.00;83.70
5621;DHT22;2832;50.864;12.186;2023-07-13T08:17:21;26.10;83.70
5621;DHT22;2832;50.864;12.186;2023-07-13T08:19:50;26.10;83.70
5621;DHT22;2832;50.864;12.186;2023-07-13T08:22:18;26.00;81.80
5621;DHT22;2832;50.864;12.186;2023-07-13T08:24:46;26.10;84.80
5621;DHT22;2832;50.864;12.186;2023-07-13T08:27:21;26.10;84.10
5621;DHT22;2832;50.864;12.186;2023-07-13T08:29:56;26.10;84.70
5621;DHT22;2832;50.864;12.186;2023-07-13T08:32:26;26.00;85.70
5621;DHT22;2832;50.864;12.186;2023-07-13T08:34:58;26.00;84.70
5621;DHT22;2832;50.864;12.186;2023-07-13T08:37:25;26.00;85.00
5621;DHT22;2832;50.864;12.186;2023-07-13T08:39:54;26.00;84.50
5621;DHT22;2832;50.864;12.186;2023-07-13T08:42:31;25.90;84.50
5621;DHT22;2832;50.864;12.186;2023-07-13T08:45:07;26.00;83.80
5621;DHT22;2832;50.864;12.186;2023-07-13T08:47:42;26.00;83.50
5621;DHT22;2832;50.864;12.186;2023-07-13T08:50:16;26.10;83.70
5621;DHT22;2832;50.864;12.186;2023-07-13T08:52:59;26.10;83.30
5621;DHT22;2832;50.864;12.186;2023-07-13T08:55:34;26.00;83.60
5621;DHT22;2832;50.864;12.186;2023-07-13T08:58:10;26.00;83.40
5621;DHT22;2832;50.864;12.186;2023-07-13T09:00:44;25.90;82.70
5621;DHT22;2832;50.864;12.186;2023-07-13T09:03:25;25.90;82.90
5621;DHT22;2832;50.864;12.186;2023-07-13T09:05:58;25.90;83.30
5621;DHT22;2832;50.864;12.186;2023-07-13T09:08:50;26.00;83.20
5621;DHT22;2832;50.864;12.186;2023-07-13T09:11:39;26.00;85.00
5621;DHT22;2832;50.864;12.186;2023-07-13T09:14:30;26.00;85.30
5621;DHT22;2832;50.864;12.186;2023-07-13T09:17:15;26.00;84.80
5621;DHT22;2832;50.864;12.186;2023-07-13T09:20:00;25.90;85.60
5621;DHT22;2832;50.864;12.186;2023-07-13T09:22:35;26.00;86.00
5621;DHT22;2832;50.864;12.186;2023-07-13T09:25:18;26.00;85.30
5621;DHT22;2832;50.864;12.186;2023-07-13T09:27:49;26.10;85.60
5621;DHT22;2832;50.864;12.186;2023-07-13T09:30:32;26.10;86.00
5621;DHT22;2832;50.864;12.186;2023-07-13T09:33:11;26.10;86.00
5621;DHT22;2832;50.864;12.186;2023-07-13T09:35:45;26.10;85.60
5621;DHT22;2832;50.864;12.186;2023-07-13T09:38:16;25.90;85.00
5621;DHT22;2832;50.864;12.186;2023-07-13T09:41:10;25.80;84.00
5621;DHT22;2832;50.864;12.186;2023-07-13T09:44:01;25.70;83.50
5621;DHT22;2832;50.864;12.186;2023-07-13T09:46:29;25.70;83.20
5621;DHT22;2832;50.864;12.186;2023-07-13T09:48:57;25.50;82.90
5621;DHT22;2832;50.864;12.186;2023-07-13T09:51:26;25.50;84.10
5621;DHT22;2832;50.864;12.186;2023-07-13T09:53:54;25.40;83.20
5621;DHT22;2832;50.864;12.186;2023-07-13T09:56:27;25.40;82.90
5621;DHT22;2832;50.864;12.186;2023-07-13T09:58:57;25.30;82.80
5621;DHT22;2832;50.864;12.186;2023-07-13T10:01:33;25.40;83.90
5621;DHT22;2832;50.864;12.186;2023-07-13T10:04:11;25.40;83.10
5621;DHT22;2832;50.864;12.186;2023-07-13T10:06:42;25.50;83.30
5621;DHT22;2832;50.864;12.186;2023-07-13T10:09:19;25.60;83.30
5621;DHT22;2832;50.864;12.186;2023-07-13T10:11:51;25.60;83.20
5621;DHT22;2832;50.864;12.186;2023-07-13T10:14:29;25.60;82.70
5621;DHT22;2832;50.864;12.186;2023-07-13T10:16:59;25.60;83.10
5621;DHT22;2832;50.864;12.186;2023-07-13T10:19:41;25.60;82.00
5621;DHT22;2832;50.864;12.186;2023-07-13T10:22:25;25.60;82.40
5621;DHT22;2832;50.864;12.186;2023-07-13T10:24:59;25.70;83.30
5621;DHT22;2832;50.864;12.186;2023-07-13T10:27:37;25.70;83.80
5621;DHT22;2832;50.864;12.186;2023-07-13T10:30:19;25.70;83.00
5621;DHT22;2832;50.864;12.186;2023-07-13T10:32:53;25.80;82.00
5621;DHT22;2832;50.864;12.186;2023-07-13T10:35:29;25.80;81.40
5621;DHT22;2832;50.864;12.186;2023-07-13T10:38:07;25.90;82.10
5621;DHT22;2832;50.864;12.186;2023-07-13T10:40:41;26.00;81.80
5621;DHT22;2832;50.864;12.186;2023-07-13T10:43:25;26.10;81.30
5621;DHT22;2832;50.864;12.186;2023-07-13T10:45:57;26.10;82.20
5621;DHT22;2832;50.864;12.186;2023-07-13T10:48:30;26.00;80.40
5621;DHT22;2832;50.864;12.186;2023-07-13T10:51:06;25.90;79.60
5621;DHT22;2832;50.864;12.186;2023-07-13T10:53:37;25.80;79.60
5621;DHT22;2832;50.864;12.186;2023-07-13T10:56:22;25.90;79.30
5621;DHT22;2832;50.864;12.186;2023-07-13T10:59:09;25.80;78.50
5621;DHT22;2832;50.864;12.186;2023-07-13T11:01:51;25.80;78.50
5621;DHT22;2832;50.864;12.186;2023-07-13T11:04:23;25.90;79.20
5621;DHT22;2832;50.864;12.186;2023-07-13T11:06:59;26.00;79.20
5621;DHT22;2832;50.864;12.186;2023-07-13T11:09:35;26.10;80.00
5621;DHT22;2832;50.864;12.186;2023-07-13T11:12:28;26.00;78.60
5621;DHT22;2832;50.864;12.186;2023-07-13T11:15:33;26.00;79.00
5621;DHT22;2832;50.864;12.186;2023-07-13T11:18:35;26.10;77.70
5621;DHT22;2832;50.864;12.186;2023-07-13T11:21:17;26.20;78.70
5621;DHT22;2832;50.864;12.186;2023-07-13T11:24:14;26.30;79.40
5621;DHT22;2832;50.864;12.186;2023-07-13T11:26:56;26.30;77.80
5621;DHT22;2832;50.864;12.186;2023-07-13T11:29:33;26.20;76.90
5621;DHT22;2832;50.864;12.186;2023-07-13T11:32:21;26.10;76.00
5621;DHT22;2832;50.864;12.186;2023-07-13T11:34:50;26.00;74.80
5621;DHT22;2832;50.864;12.186;2023-07-13T11:37:22;25.80;74.80
5621;DHT22;2832;50.864;12.186;2023-07-13T11:39:52;25.80;69.90
5621;DHT22;2832;50.864;12.186;2023-07-13T11:42:21;25.80;72.80
5621;DHT22;2832;50.864;12.186;2023-07-13T11:44:52;25.90;73.20
5621;DHT22;2832;50.864;12.186;2023-07-13T11:47:23;26.00;74.70
5621;DHT22;2832;50.864;12.186;2023-07-13T11:49:55;26.00;75.80
5621;DHT22;2832;50.864;12.186;2023-07-13T11:52:29;26.00;73.70
5621;DHT22;2832;50.864;12.186;2023-07-13T11:55:08;26.10;75.30
5621;DHT22;2832;50.864;12.186;2023-07-13T11:57:50;26.10;74.50
5621;DHT22;2832;50.864;12.186;2023-07-13T12:00:31;26.20;74.60
5621;DHT22;2832;50.864;12.186;2023-07-13T12:03:04;26.20;73.30
5621;DHT22;2832;50.864;12.186;2023-07-13T12:05:37;26.20;73.00
5621;DHT22;2832;50.864;12.186;2023-07-13T12:08:18;26.20;72.70
5621;DHT22;2832;50.864;12.186;2023-07-13T12:10:47;26.20;72.50
5621;DHT22;2832;50.864;12.186;2023-07-13T12:13:21;26.20;72.10
5621;DHT22;2832;50.864;12.186;2023-07-13T12:15:54;26.20;72.50
5621;DHT22;2832;50.864;12.186;2023-07-13T12:18:31;26.30;71.80
5621;DHT22;2832;50.864;12.186;2023-07-13T12:21:04;26.30;72.00
5621;DHT22;2832;50.864;12.186;2023-07-13T12:23:42;26.30;70.50
5621;DHT22;2832;50.864;12.186;2023-07-13T12:26:14;26.30;70.90
5621;DHT22;2832;50.864;12.186;2023-07-13T12:28:49;26.20;70.30
5621;DHT22;2832;50.864;12.186;2023-07-13T12:31:31;26.20;69.80
5621;DHT22;2832;50.864;12.186;2023-07-13T12:34:03;26.20;69.30
5621;DHT22;2832;50.864;12.186;2023-07-13T12:36:33;26.20;70.50
5621;DHT22;2832;50.864;12.186;2023-07-13T12:39:12;26.20;70.20
5621;DHT22;2832;50.864;12.186;2023-07-13T12:41:42;26.10;68.40
5621;DHT22;2832;50.864;12.186;2023-07-13T12:44:16;26.10;69.10
5621;DHT22;2832;50.864;12.186;2023-07-13T12:46:56;26.10;69.00
5621;DHT22;2832;50.864;12.186;2023-07-13T12:49:29;26.10;70.30
5621;DHT22;2832;50.864;12.186;2023-07-13T12:52:10;26.10;69.80
5621;DHT22;2832;50.864;12.186;2023-07-13T12:55:03;26.20;68.20
5621;DHT22;2832;50.864;12.186;2023-07-13T12:57:40;26.30;72.60
5621;DHT22;2832;50.864;12.186;2023-07-13T13:00:27;26.30;70.00
5621;DHT22;2832;50.864;12.186;2023-07-13T13:03:04;26.30;71.20
5621;DHT22;2832;50.864;12.186;2023-07-13T13:05:34;26.40;72.30
5621;DHT22;2832;50.864;12.186;2023-07-13T13:08:07;26.40;72.00
5621;DHT22;2832;50.864;12.186;2023-07-13T13:10:35;26.50;71.40
5621;DHT22;2832;50.864;12.186;2023-07-13T13:13:02;26.50;71.30
5621;DHT22;2832;50.864;12.186;2023-07-13T13:15:34;26.60;73.20
5621;DHT22;2832;50.864;12.186;2023-07-13T13:18:15;26.60;71.30
5621;DHT22;2832;50.864;12.186;2023-07-13T13:20:44;26.50;71.40
5621;DHT22;2832;50.864;12.186;2023-07-13T13:23:13;26.50;69.90
5621;DHT22;2832;50.864;12.186;2023-07-13T13:25:44;26.30;70.40
5621;DHT22;2832;50.864;12.186;2023-07-13T13:28:16;26.30;69.90
5621;DHT22;2832;50.864;12.186;2023-07-13T13:31:10;26.20;69.80
5621;DHT22;2832;50.864;12.186;2023-07-13T13:33:54;26.30;70.50
5621;DHT22;2832;50.864;12.186;2023-07-13T13:36:31;26.30;70.60
5621;DHT22;2832;50.864;12.186;2023-07-13T13:39:50;26.40;71.50
5621;DHT22;2832;50.864;12.186;2023-07-13T13:42:34;26.30;71.50
5621;DHT22;2832;50.864;12.186;2023-07-13T13:45:36;26.30;70.40
5621;DHT22;2832;50.864;12.186;2023-07-13T13:48:30;26.30;71.50
5621;DHT22;2832;50.864;12.186;2023-07-13T13:51:19;26.30;71.50
5621;DHT22;2832;50.864;12.186;2023-07-13T13:54:01;26.30;70.00
5621;DHT22;2832;50.864;12.186;2023-07-13T13:56:47;26.40;70.80
5621;DHT22;2832;50.864;12.186;2023-07-13T13:59:35;26.50;72.60
5621;DHT22;2832;50.864;12.186;2023-07-13T14:02:52;26.50;71.50
5621;DHT22;2832;50.864;12.186;2023-07-13T14:06:04;26.50;72.00
5621;DHT22;2832;50.864;12.186;2023-07-13T14:08:35;26.60;74.00
5621;DHT22;2832;50.864;12.186;2023-07-13T14:11:03;26.60;72.80
5621;DHT22;2832;50.864;12.186;2023-07-13T14:13:35;26.60;72.60
5621;DHT22;2832;50.864;12.186;2023-07-13T14:16:09;26.50;72.20
5621;DHT22;2832;50.864;12.186;2023-07-13T14:18:39;26.50;73.00
5621;DHT22;2832;50.864;12.186;2023-07-13T14:21:15;26.50;73.40
5621;DHT22;2832;50.864;12.186;2023-07-13T14:23:50;26.50;73.40
5621;DHT22;2832;50.864;12.186;2023-07-13T14:26:22;26.50;74.40
5621;DHT22;2832;50.864;12.186;2023-07-13T14:28:53;26.60;74.00
5621;DHT22;2832;50.864;12.186;2023-07-13T14:31:22;26.50;72.70
5621;DHT22;2832;50.864;12.186;2023-07-13T14:33:51;26.50;72.30
5621;DHT22;2832;50.864;12.186;2023-07-13T14:36:27;26.50;73.20
5621;DHT22;2832;50.864;12.186;2023-07-13T14:38:57;26.60;73.00
5621;DHT22;2832;50.864;12.186;2023-07-13T14:41:27;26.50;73.50
5621;DHT22;2832;50.864;12.186;2023-07-13T14:43:55;26.60;72.60
5621;DHT22;2832;50.864;12.186;2023-07-13T14:46:28;26.50;73.30
5621;DHT22;2832;50.864;12.186;2023-07-13T14:49:02;26.50;72.40
5621;DHT22;2832;50.864;12.186;2023-07-13T14:51:33;26.40;71.60
5621;DHT22;2832;50.864;12.186;2023-07-13T14:54:07;26.40;72.20
5621;DHT22;2832;50.864;12.186;2023-07-13T14:56:39;26.40;70.80
5621;DHT22;2832;50.864;12.186;2023-07-13T14:59:07;26.30;71.50
5621;DHT22;2832;50.864;12.186;2023-07-13T15:01:39;26.40;71.40
5621;DHT22;2832;50.864;12.186;2023-07-13T15:04:08;26.40;70.90
5621;DHT22;2832;50.864;12.186;2023-07-13T15:06:56;26.40;70.90
5621;DHT22;2832;50.864;12.186;2023-07-13T15:09:29;26.30;71.10
5621;DHT22;2832;50.864;12.186;2023-07-13T15:11:57;26.30;69.50
5621;DHT22;2832;50.864;12.186;2023-07-13T15:14:25;26.40;71.10
5621;DHT22;2832;50.864;12.186;2023-07-13T15:16:55;26.30;70.50
5621;DHT22;2832;50.864;12.186;2023-07-13T15:19:25;26.20;70.80
5621;DHT22;2832;50.864;12.186;2023-07-13T15:21:56;26.20;71.00
5621;DHT22;2832;50.864;12.186;2023-07-13T15:24:25;26.30;70.30
5621;DHT22;2832;50.864;12.186;2023-07-13T15:26:54;26.30;70.10
5621;DHT22;2832;50.864;12.186;2023-07-13T15:29:23;26.40;70.20
5621;DHT22;2832;50.864;12.186;2023-07-13T15:31:50;26.50;70.50
5621;DHT22;2832;50.864;12.186;2023-07-13T15:34:24;26.50;70.40
5621;DHT22;2832;50.864;12.186;2023-07-13T15:36:56;26.50;70.20
5621;DHT22;2832;50.864;12.186;2023-07-13T15:39:26;26.50;70.10
5621;DHT22;2832;50.864;12.186;2023-07-13T15:42:00;26.50;70.30
5621;DHT22;2832;50.864;12.186;2023-07-13T15:44:32;26.50;69.30
5621;DHT22;2832;50.864;12.186;2023-07-13T15:47:11;26.50;68.80
5621;DHT22;2832;50.864;12.186;2023-07-13T15:49:41;26.50;69.60
5621;DHT22;2832;50.864;12.186;2023-07-13T15:52:17;26.40;68.00
5621;DHT22;2832;50.864;12.186;2023-07-13T15:54:46;26.40;68.20
5621;DHT22;2832;50.864;12.186;2023-07-13T15:57:15;26.40;67.80
5621;DHT22;2832;50.864;12.186;2023-07-13T15:59:44;26.40;67.60
5621;DHT22;2832;50.864;12.186;2023-07-13T16:02:16;26.50;68.80
5621;DHT22;2832;50.864;12.186;2023-07-13T16:04:46;26.50;69.30
5621;DHT22;2832;50.864;12.186;2023-07-13T16:07:17;26.60;69.00
5621;DHT22;2832;50.864;12.186;2023-07-13T16:09:45;26.60;69.20
5621;DHT22;2832;50.864;12.186;2023-07-13T16:12:15;26.70;67.40
5621;DHT22;2832;50.864;12.186;2023-07-13T16:14:43;26.60;66.20
5621;DHT22;2832;50.864;12.186;2023-07-13T16:17:12;26.50;66.30
5621;DHT22;2832;50.864;12.186;2023-07-13T16:19:43;26.50;66.60
5621;DHT22;2832;50.864;12.186;2023-07-13T16:22:16;26.50;66.60
5621;DHT22;2832;50.864;12.186;2023-07-13T16:24:44;26.50;67.40